Apolo, Bolivia
Current Conditions -  °F | °C
As of 6:00 PM on Wednesday 22 Oct 2014 (Local Time) from SPJL Reporting Station
Rain Showers Rain Showers  
Wind Chill: 52°   Ceiling: 8000
Heat Index: 52°   Visibility: 6mi
Dew Point: 41°   Wind: 8mph
Humidity: 67%   Direction: 220°SW
Pressure: 30.59"   Gusts: NA
Location:  14.72°S, 68.51°W
Report Text: SPJL 222200Z 22007KT 9999 VCSH FEW010 BKN080 11/05 Q1036 RMKPP000
Loading
Personal Weather Stations






























Interactive Weather Map
Tropical Storm Tracking
New forecast layout! Learn more

10-Day Weather Forecast

Advertisements
Track Severe Weather on mobile